createdAt,value
2022-08-12T00:02:02.852Z,8.00
2022-08-12T00:05:40.011Z,6.70
2022-08-12T00:08:49.840Z,9.80
2022-08-12T00:11:36.712Z,10.30
2022-08-12T00:14:23.970Z,7.60
2022-08-12T00:17:11.267Z,8.10
2022-08-12T00:19:57.961Z,10.90
2022-08-12T00:22:53.099Z,6.80
2022-08-12T00:26:21.298Z,8.10
2022-08-12T00:29:04.020Z,7.10
2022-08-12T00:31:51.238Z,6.70
2022-08-12T00:34:38.499Z,4.90
2022-08-12T00:37:24.954Z,9.90
2022-08-12T00:40:12.306Z,8.00
2022-08-12T00:42:42.110Z,5.20
2022-08-12T00:45:11.546Z,6.80
2022-08-12T00:47:40.574Z,6.20
2022-08-12T00:50:17.435Z,7.00
2022-08-12T00:52:46.759Z,6.20
2022-08-12T00:55:16.462Z,3.40
2022-08-12T00:57:47.989Z,5.80
2022-08-12T01:00:20.798Z,4.10
2022-08-12T01:02:51.644Z,4.80
2022-08-12T01:05:46.927Z,7.80
2022-08-12T01:08:45.189Z,6.50
2022-08-12T01:11:32.091Z,8.40
2022-08-12T01:14:02.227Z,6.10
2022-08-12T01:16:31.337Z,7.90
2022-08-12T01:19:01.136Z,6.10
2022-08-12T01:21:56.547Z,6.90
2022-08-12T01:24:51.478Z,5.60
2022-08-12T01:27:21.179Z,7.30
2022-08-12T01:29:51.803Z,9.70
2022-08-12T01:32:23.252Z,9.70
2022-08-12T01:35:01.112Z,7.00
2022-08-12T01:37:33.350Z,10.50
2022-08-12T01:40:35.492Z,10.20
2022-08-12T01:42:54.660Z,9.90
2022-08-12T01:45:24.028Z,8.90
2022-08-12T01:48:05.267Z,7.80
2022-08-12T01:50:46.849Z,13.90
2022-08-12T01:53:20.329Z,7.30
2022-08-12T01:55:49.971Z,14.10
2022-08-12T01:58:49.919Z,10.80
2022-08-12T02:01:23.690Z,9.40
2022-08-12T02:04:24.553Z,7.10
2022-08-12T02:07:20.752Z,8.10
2022-08-12T02:10:50.133Z,5.60
2022-08-12T02:13:43.812Z,10.60
2022-08-12T02:16:21.858Z,8.70
2022-08-12T02:19:03.132Z,5.30
2022-08-12T02:21:47.423Z,6.30
2022-08-12T02:24:20.087Z,8.20
2022-08-12T02:26:49.943Z,8.40
2022-08-12T02:29:20.086Z,6.30
2022-08-12T02:31:49.831Z,7.50
2022-08-12T02:34:19.021Z,5.20
2022-08-12T02:36:48.847Z,9.00
2022-08-12T02:39:22.987Z,5.60
2022-08-12T02:41:54.321Z,5.00
2022-08-12T02:44:25.943Z,4.50
2022-08-12T02:46:58.842Z,4.30
2022-08-12T02:49:32.528Z,6.80
2022-08-12T02:52:01.066Z,6.60
2022-08-12T02:54:29.500Z,6.50
2022-08-12T02:56:59.580Z,5.30
2022-08-12T02:59:29.184Z,6.60
2022-08-12T03:02:03.020Z,8.70
2022-08-12T03:04:41.623Z,5.30
2022-08-12T03:07:17.850Z,6.20
2022-08-12T03:10:04.009Z,4.40
2022-08-12T03:12:42.825Z,5.80
2022-08-12T03:15:22.019Z,9.20
2022-08-12T03:18:25.850Z,6.30
2022-08-12T03:20:45.836Z,4.50
2022-08-12T03:23:17.523Z,7.70
2022-08-12T03:26:00.003Z,8.20
2022-08-12T03:28:48.113Z,5.90
2022-08-12T03:31:18.507Z,7.50
2022-08-12T03:34:01.754Z,9.90
2022-08-12T03:36:34.159Z,4.80
2022-08-12T03:39:36.453Z,5.00
2022-08-12T03:42:33.011Z,9.10
2022-08-12T03:45:51.446Z,7.40
2022-08-12T03:48:40.305Z,10.40
2022-08-12T03:51:29.250Z,7.20
2022-08-12T03:54:16.418Z,8.40
2022-08-12T03:57:03.510Z,10.30
2022-08-12T03:59:50.561Z,11.50
2022-08-12T04:02:18.985Z,7.50
2022-08-12T04:04:49.390Z,5.80
2022-08-12T04:07:18.201Z,6.30
2022-08-12T04:09:47.241Z,5.70
2022-08-12T04:12:34.153Z,14.00
2022-08-12T04:15:03.412Z,7.40
2022-08-12T04:17:33.112Z,12.30
2022-08-12T04:20:01.655Z,10.20
2022-08-12T04:22:31.099Z,14.50
2022-08-12T04:25:01.313Z,10.30
2022-08-12T04:27:30.962Z,7.90
2022-08-12T04:30:29.920Z,10.30
2022-08-12T04:32:50.449Z,10.70
2022-08-12T04:35:19.375Z,7.20
2022-08-12T04:37:58.138Z,4.70
2022-08-12T04:40:32.470Z,7.20
2022-08-12T04:43:01.695Z,7.50
2022-08-12T04:45:31.789Z,6.90
2022-08-12T04:48:01.721Z,10.40
2022-08-12T04:50:36.048Z,7.00
2022-08-12T04:53:06.786Z,7.80
2022-08-12T04:55:39.068Z,7.60
2022-08-12T04:58:11.615Z,10.70
2022-08-12T05:00:40.256Z,10.50
2022-08-12T05:03:09.154Z,4.70
2022-08-12T05:05:39.608Z,4.00
2022-08-12T05:08:12.368Z,6.40
2022-08-12T05:10:40.916Z,7.50
2022-08-12T05:13:13.689Z,8.90
2022-08-12T05:16:04.640Z,8.00
2022-08-12T05:18:33.220Z,11.80
2022-08-12T05:21:04.229Z,7.90
2022-08-12T05:23:33.378Z,6.60
2022-08-12T05:26:01.802Z,10.10
2022-08-12T05:28:30.655Z,7.90
2022-08-12T05:31:01.179Z,6.40
2022-08-12T05:33:36.927Z,8.90
2022-08-12T05:36:07.317Z,6.50
2022-08-12T05:38:54.570Z,8.30
2022-08-12T05:41:24.446Z,8.10
2022-08-12T05:43:54.549Z,8.50
2022-08-12T05:46:24.159Z,9.70
2022-08-12T05:48:54.133Z,7.60
2022-08-12T05:51:24.255Z,8.10
2022-08-12T05:53:58.153Z,12.60
2022-08-12T06:00:03.674Z,6.40
2022-08-12T06:02:41.270Z,6.40
2022-08-12T06:05:10.363Z,15.10
2022-08-12T06:08:49.005Z,11.10
2022-08-12T06:17:04.826Z,6.00
2022-08-12T06:20:27.330Z,7.60
2022-08-12T06:22:23.230Z,9.50
2022-08-12T06:24:52.761Z,10.30
2022-08-12T06:27:36.205Z,8.20
2022-08-12T06:30:42.010Z,5.00
2022-08-12T06:33:59.464Z,3.80
2022-08-12T06:36:49.403Z,9.40
2022-08-12T06:39:26.537Z,5.50
2022-08-12T06:42:32.551Z,17.70
2022-08-12T06:45:07.325Z,7.70
2022-08-12T06:47:40.753Z,8.00
2022-08-12T06:50:15.904Z,4.40
2022-08-12T06:52:50.938Z,8.40
2022-08-12T06:55:25.519Z,7.50
2022-08-12T06:58:10.230Z,10.30
2022-08-12T07:00:46.399Z,10.20
2022-08-12T07:03:27.968Z,5.10
2022-08-12T07:06:02.132Z,5.90
2022-08-12T07:08:35.878Z,6.20
2022-08-12T07:11:10.151Z,11.00
2022-08-12T07:14:02.587Z,6.20
2022-08-12T07:16:51.014Z,10.70
2022-08-12T07:19:23.338Z,3.40
2022-08-12T07:22:06.472Z,7.90
2022-08-12T07:24:38.373Z,7.70
2022-08-12T07:27:12.080Z,9.10
2022-08-12T07:29:57.913Z,4.40
2022-08-12T07:32:35.881Z,5.90
2022-08-12T07:35:09.446Z,5.90
2022-08-12T07:37:44.438Z,9.20
2022-08-12T07:40:18.856Z,5.10
2022-08-12T07:42:50.753Z,6.20
2022-08-12T07:45:22.866Z,5.00
2022-08-12T07:47:54.796Z,6.00
2022-08-12T07:50:27.210Z,6.60
2022-08-12T07:53:00.151Z,4.50
2022-08-12T07:55:31.988Z,4.30
2022-08-12T07:58:04.619Z,12.30
2022-08-12T08:00:40.499Z,5.40
2022-08-12T08:03:17.388Z,7.60
2022-08-12T08:05:51.956Z,8.20
2022-08-12T08:08:26.466Z,9.40
2022-08-12T08:11:15.306Z,6.80
2022-08-12T08:13:49.405Z,8.90
2022-08-12T08:16:21.307Z,7.50
2022-08-12T08:18:55.966Z,8.70
2022-08-12T08:21:35.490Z,9.00
2022-08-12T08:24:17.414Z,5.80
2022-08-12T08:26:50.307Z,6.20
2022-08-12T08:29:23.957Z,5.90
2022-08-12T08:32:00.163Z,4.10
2022-08-12T08:37:27.733Z,4.70
2022-08-12T08:40:20.400Z,9.10
2022-08-12T08:42:52.290Z,6.50
2022-08-12T08:45:24.149Z,5.60
2022-08-12T08:47:59.694Z,8.40
2022-08-12T08:50:33.653Z,8.00
2022-08-12T08:53:08.828Z,7.20
2022-08-12T08:56:04.175Z,2.80
2022-08-12T08:58:34.584Z,9.60
2022-08-12T09:01:06.449Z,4.00
2022-08-12T09:05:11.974Z,9.40
2022-08-12T09:06:37.023Z,9.00
2022-08-12T09:09:13.334Z,14.70
2022-08-12T09:12:10.789Z,3.40
2022-08-12T09:14:47.032Z,8.20
2022-08-12T09:17:24.207Z,7.30
2022-08-12T09:19:58.355Z,7.40
2022-08-12T09:22:30.804Z,5.10
2022-08-12T09:25:08.298Z,8.60
2022-08-12T09:28:04.134Z,6.90
2022-08-12T09:30:41.667Z,3.00
2022-08-12T09:34:24.698Z,5.40
2022-08-12T09:36:07.361Z,4.70
2022-08-12T09:38:58.746Z,4.90
2022-08-12T09:42:33.816Z,9.90
2022-08-12T09:45:17.852Z,5.90
2022-08-12T09:47:45.590Z,4.70
2022-08-12T09:50:31.696Z,3.40
2022-08-12T09:53:14.926Z,6.30
2022-08-12T09:56:05.597Z,6.60
2022-08-12T09:58:57.729Z,3.90
2022-08-12T10:01:35.042Z,2.60
2022-08-12T10:04:23.342Z,5.90
2022-08-12T10:06:57.595Z,4.60
2022-08-12T10:09:58.323Z,11.50
2022-08-12T10:12:39.397Z,6.70
2022-08-12T10:15:15.476Z,11.70
2022-08-12T10:18:06.829Z,8.20
2022-08-12T10:20:39.987Z,5.30
2022-08-12T10:23:12.656Z,6.40
2022-08-12T10:26:35.171Z,6.40
2022-08-12T10:29:15.722Z,3.70
2022-08-12T10:32:20.913Z,6.40
2022-08-12T10:34:57.418Z,9.10
2022-08-12T10:38:34.638Z,6.30
2022-08-12T10:40:25.396Z,4.30
2022-08-12T10:43:18.890Z,4.60
2022-08-12T10:45:54.243Z,7.10
2022-08-12T10:48:34.297Z,4.40
2022-08-12T10:52:03.691Z,5.50
2022-08-12T10:54:00.921Z,6.60
2022-08-12T10:56:37.017Z,4.30
2022-08-12T10:59:10.966Z,7.90
2022-08-12T11:04:17.246Z,4.20
2022-08-12T11:04:45.573Z,9.70
2022-08-12T11:08:34.387Z,5.00
2022-08-12T11:10:14.282Z,5.50
2022-08-12T11:12:59.099Z,11.00
2022-08-12T11:16:02.605Z,10.50
2022-08-12T11:18:25.017Z,3.70
2022-08-12T11:20:58.214Z,5.20
2022-08-12T11:23:37.380Z,6.20
2022-08-12T11:26:10.036Z,4.20
2022-08-12T11:28:41.906Z,3.90
2022-08-12T11:31:14.630Z,5.10
2022-08-12T11:34:06.569Z,8.80
2022-08-12T11:36:53.498Z,5.00
2022-08-12T11:39:28.493Z,11.00
2022-08-12T11:42:17.846Z,3.70
2022-08-12T11:45:04.151Z,4.50
2022-08-12T11:47:40.390Z,2.80
2022-08-12T11:50:18.897Z,7.90
2022-08-12T11:52:56.583Z,6.70
2022-08-12T11:55:29.800Z,5.10
2022-08-12T11:58:32.237Z,3.20
2022-08-12T12:03:46.655Z,2.60
2022-08-12T12:06:21.067Z,4.40
2022-08-12T12:08:54.897Z,4.90
2022-08-12T12:11:27.045Z,8.90
2022-08-12T12:14:18.869Z,3.20
2022-08-12T12:17:09.850Z,4.50
2022-08-12T12:19:46.147Z,7.00
2022-08-12T12:22:23.415Z,4.90
2022-08-12T12:25:12.706Z,7.20
2022-08-12T12:28:06.071Z,5.80
2022-08-12T12:30:39.058Z,3.50
2022-08-12T12:33:26.526Z,3.30
2022-08-12T12:36:23.139Z,7.30
2022-08-12T12:38:57.106Z,14.20
2022-08-12T12:42:42.586Z,6.60
2022-08-12T12:44:25.740Z,5.50
2022-08-12T12:47:30.115Z,10.60
2022-08-12T12:50:02.210Z,9.30
2022-08-12T12:52:38.446Z,8.80
2022-08-12T12:55:16.375Z,4.20
2022-08-12T12:57:59.150Z,16.70
2022-08-12T13:00:33.285Z,6.40
2022-08-12T13:03:05.134Z,4.70
2022-08-12T13:05:42.357Z,4.00
2022-08-12T13:08:28.589Z,5.80
2022-08-12T13:11:09.222Z,6.50
2022-08-12T13:14:10.173Z,6.00
2022-08-12T13:16:34.980Z,5.00
2022-08-12T13:19:07.839Z,5.60
2022-08-12T13:22:00.351Z,3.50
2022-08-12T13:24:32.461Z,4.30
2022-08-12T13:27:04.666Z,10.10
2022-08-12T13:29:39.182Z,7.50
2022-08-12T13:32:18.999Z,8.10
2022-08-12T13:35:19.241Z,3.60
2022-08-12T13:37:55.781Z,6.10
2022-08-12T13:40:30.226Z,4.70
2022-08-12T13:43:07.047Z,9.50
2022-08-12T13:45:40.324Z,7.80
2022-08-12T13:48:12.220Z,3.90
2022-08-12T13:50:44.453Z,6.70
2022-08-12T13:53:26.086Z,6.90
2022-08-12T13:56:16.186Z,5.20
2022-08-12T13:58:52.702Z,4.00
2022-08-12T14:01:24.754Z,8.20
2022-08-12T14:03:56.845Z,7.10
2022-08-12T14:06:30.373Z,4.10
2022-08-12T14:09:15.429Z,7.10
2022-08-12T14:11:58.802Z,8.70
2022-08-12T14:14:35.707Z,5.90
2022-08-12T14:17:10.724Z,4.40
2022-08-12T14:20:05.961Z,6.20
2022-08-12T14:22:51.413Z,12.00
2022-08-12T14:25:24.735Z,6.60
2022-08-12T14:28:03.359Z,7.80
2022-08-12T14:30:38.608Z,6.50
2022-08-12T14:33:44.265Z,5.70
2022-08-12T14:36:20.621Z,6.90
2022-08-12T14:38:56.028Z,6.90
2022-08-12T14:41:37.244Z,10.30
2022-08-12T14:44:57.505Z,7.00
2022-08-12T14:47:14.266Z,4.60
2022-08-12T14:50:41.321Z,11.10
2022-08-12T14:58:37.520Z,7.20
2022-08-12T15:01:42.849Z,5.20
2022-08-12T15:04:15.829Z,9.60
2022-08-12T15:06:52.342Z,9.90
2022-08-12T15:09:28.826Z,10.50
2022-08-12T15:12:03.268Z,11.90
2022-08-12T15:14:37.968Z,10.20
2022-08-12T15:17:10.049Z,9.30
2022-08-12T15:20:11.885Z,9.20
2022-08-12T15:22:53.424Z,14.60
2022-08-12T15:25:26.259Z,5.70
2022-08-12T15:28:04.416Z,10.50
2022-08-12T15:30:53.350Z,9.80
2022-08-12T15:33:26.736Z,8.80
2022-08-12T15:36:36.552Z,8.60
2022-08-12T15:39:17.687Z,10.70
2022-08-12T15:41:50.904Z,8.20
2022-08-12T15:44:37.941Z,11.80
2022-08-12T15:47:16.318Z,8.40
2022-08-12T15:49:59.781Z,9.80
2022-08-12T15:52:37.655Z,9.70
2022-08-12T15:55:16.744Z,7.40
2022-08-12T15:57:54.191Z,8.40
2022-08-12T16:00:32.818Z,12.50
2022-08-12T16:03:14.371Z,12.50
2022-08-12T16:06:11.882Z,8.50
2022-08-12T16:08:47.718Z,12.50
2022-08-12T16:11:22.047Z,9.80
2022-08-12T16:13:53.847Z,12.50
2022-08-12T16:16:25.697Z,11.20
2022-08-12T16:19:04.535Z,15.90
2022-08-12T16:21:58.415Z,10.80
2022-08-12T16:24:34.993Z,10.20
2022-08-12T16:27:10.995Z,8.90
2022-08-12T16:29:53.530Z,9.20
2022-08-12T16:32:31.172Z,8.20
2022-08-12T16:35:06.377Z,10.60
2022-08-12T16:38:24.457Z,11.50
2022-08-12T16:40:33.800Z,8.00
2022-08-12T16:43:21.402Z,8.40
2022-08-12T16:46:07.691Z,10.70
2022-08-12T16:48:50.445Z,10.30
2022-08-12T16:51:26.644Z,7.80
2022-08-12T16:54:02.861Z,10.50
2022-08-12T16:56:38.020Z,5.60
2022-08-12T16:59:16.037Z,7.90
2022-08-12T17:01:49.727Z,10.40
2022-08-12T17:04:24.385Z,10.00
2022-08-12T17:06:56.725Z,13.80
2022-08-12T17:09:39.761Z,14.60
2022-08-12T17:12:12.684Z,14.00
2022-08-12T17:14:47.240Z,9.00
2022-08-12T17:17:38.882Z,8.80
2022-08-12T17:20:34.109Z,7.80
2022-08-12T17:23:13.695Z,10.80
2022-08-12T17:25:50.364Z,19.30
2022-08-12T17:28:23.388Z,14.00
2022-08-12T17:31:00.315Z,8.40
2022-08-12T17:33:35.882Z,8.20
2022-08-12T17:36:11.518Z,9.70
2022-08-12T17:38:44.408Z,7.90
2022-08-12T17:41:56.044Z,9.00
2022-08-12T17:44:15.425Z,12.70
2022-08-12T17:46:53.766Z,6.60
2022-08-12T17:50:02.333Z,6.10
2022-08-12T17:52:20.911Z,9.00
2022-08-12T17:54:58.653Z,6.60
2022-08-12T17:57:31.622Z,9.90
2022-08-12T18:00:12.833Z,12.30
2022-08-12T18:02:46.766Z,6.90
2022-08-12T18:05:23.104Z,13.70
2022-08-12T18:07:57.873Z,11.00
2022-08-12T18:10:53.103Z,9.30
2022-08-12T18:13:34.648Z,10.20
2022-08-12T18:16:16.230Z,11.30
2022-08-12T18:18:59.694Z,10.70
2022-08-12T18:22:01.864Z,10.10
2022-08-12T18:24:29.521Z,10.80
2022-08-12T18:27:30.090Z,8.10
2022-08-12T18:29:55.472Z,10.30
2022-08-12T18:32:53.796Z,8.70
2022-08-12T18:35:20.409Z,11.80
2022-08-12T18:38:03.703Z,7.40
2022-08-12T18:40:55.294Z,11.40
2022-08-12T18:43:37.003Z,11.10
2022-08-12T18:46:34.404Z,8.50
2022-08-12T18:49:18.709Z,8.60
2022-08-12T18:52:02.520Z,10.40
2022-08-12T18:54:54.112Z,8.80
2022-08-12T18:58:07.203Z,18.40
2022-08-12T19:00:25.143Z,17.10
2022-08-12T19:02:58.953Z,11.90
2022-08-12T19:05:54.267Z,10.20
2022-08-12T19:08:31.376Z,14.10
2022-08-12T19:11:17.542Z,11.90
2022-08-12T19:14:08.381Z,10.20
2022-08-12T19:16:44.102Z,12.70
2022-08-12T19:19:24.616Z,7.90
2022-08-12T19:21:58.103Z,26.10
2022-08-12T19:24:51.806Z,21.20
2022-08-12T19:27:24.830Z,12.60
2022-08-12T19:30:09.288Z,16.40
2022-08-12T19:32:48.752Z,20.70
2022-08-12T19:36:06.432Z,13.60
2022-08-12T19:38:20.832Z,14.00
2022-08-12T19:40:53.752Z,20.10
2022-08-12T19:43:27.265Z,18.10
2022-08-12T19:46:27.724Z,17.30
2022-08-12T19:49:07.004Z,18.80
2022-08-12T19:51:42.567Z,17.70
2022-08-12T19:54:23.071Z,17.80
2022-08-12T19:57:04.581Z,26.70
2022-08-12T19:59:43.490Z,37.20
2022-08-12T20:02:32.898Z,38.80
2022-08-12T20:06:03.679Z,25.70
2022-08-12T20:07:59.669Z,25.00
2022-08-12T20:10:36.275Z,27.30
2022-08-12T20:13:18.798Z,28.10
2022-08-12T20:15:59.960Z,22.90
2022-08-12T20:18:53.243Z,24.50
2022-08-12T20:21:25.513Z,24.00
2022-08-12T20:24:14.628Z,25.60
2022-08-12T20:26:46.794Z,17.70
2022-08-12T20:29:24.350Z,17.80
2022-08-12T20:32:10.402Z,17.90
2022-08-12T20:34:48.271Z,14.60
2022-08-12T20:38:07.046Z,11.60
2022-08-12T20:40:19.356Z,15.10
2022-08-12T20:42:55.821Z,13.30
2022-08-12T20:45:32.919Z,20.50
2022-08-12T20:48:17.103Z,16.10
2022-08-12T20:50:53.718Z,14.50
2022-08-12T20:53:54.048Z,13.80
2022-08-12T20:56:31.040Z,19.80
2022-08-12T20:59:06.688Z,17.30
2022-08-12T21:01:46.452Z,15.10
2022-08-12T21:04:38.611Z,12.10
2022-08-12T21:07:11.444Z,19.20
2022-08-12T21:09:49.212Z,15.60
2022-08-12T21:12:27.700Z,19.30
2022-08-12T21:15:23.540Z,15.00
2022-08-12T21:18:11.397Z,19.10
2022-08-12T21:20:57.372Z,12.40
2022-08-12T21:23:37.109Z,13.80
2022-08-12T21:26:16.444Z,13.50
2022-08-12T21:28:58.253Z,12.60
2022-08-12T21:32:47.061Z,13.00
2022-08-12T21:34:31.193Z,13.20
2022-08-12T21:37:13.195Z,14.60
2022-08-12T21:39:57.263Z,15.10
2022-08-12T21:42:42.091Z,17.00
2022-08-12T21:45:48.403Z,10.30
2022-08-12T21:48:11.778Z,11.30
2022-08-12T21:50:44.497Z,13.20
2022-08-12T21:53:19.325Z,10.80
2022-08-12T21:55:57.957Z,9.60
2022-08-12T21:58:29.843Z,10.70
2022-08-12T22:01:01.968Z,13.30
2022-08-12T22:04:03.844Z,10.50
2022-08-12T22:06:44.597Z,13.20
2022-08-12T22:09:18.609Z,10.30
2022-08-12T22:11:59.496Z,13.70
2022-08-12T22:14:31.763Z,10.40
2022-08-12T22:17:05.160Z,11.90
2022-08-12T22:19:40.673Z,12.40
2022-08-12T22:22:14.606Z,11.50
2022-08-12T22:24:48.365Z,10.40
2022-08-12T22:27:32.434Z,10.00
2022-08-12T22:30:23.425Z,9.10
2022-08-12T22:32:57.925Z,12.20
2022-08-12T22:35:55.679Z,19.00
2022-08-12T22:38:35.953Z,11.30
2022-08-12T22:41:33.057Z,10.30
2022-08-12T22:44:23.953Z,12.80
2022-08-12T22:47:15.153Z,13.70
2022-08-12T22:50:09.477Z,13.40
2022-08-12T22:53:15.729Z,10.20
2022-08-12T22:56:00.258Z,11.50
2022-08-12T22:58:41.256Z,12.20
2022-08-12T23:01:21.461Z,11.00
2022-08-12T23:04:15.399Z,12.90
2022-08-12T23:07:05.457Z,16.10
2022-08-12T23:09:47.978Z,12.90
2022-08-12T23:12:34.417Z,16.50
2022-08-12T23:15:11.526Z,17.90
2022-08-12T23:17:46.003Z,15.00
2022-08-12T23:20:22.725Z,19.50
2022-08-12T23:23:03.018Z,18.70
2022-08-12T23:25:55.613Z,16.50
2022-08-12T23:28:52.590Z,17.50
2022-08-12T23:32:03.640Z,17.20
2022-08-12T23:34:31.937Z,19.90
2022-08-12T23:37:05.467Z,18.70
2022-08-12T23:40:14.053Z,20.10
2022-08-12T23:42:30.755Z,19.20
2022-08-12T23:45:19.097Z,19.00
2022-08-12T23:47:58.434Z,21.70
2022-08-12T23:50:33.386Z,17.40
2022-08-12T23:53:22.390Z,16.30
2022-08-12T23:55:57.158Z,15.50
2022-08-12T23:58:31.126Z,15.20
